Date,TemperatureHighF,TemperatureAvgF,TemperatureLowF,DewpointHighF,DewpointAvgF,DewpointLowF,HumidityHigh,HumidityAvg,HumidityLow,PressureMaxIn,PressureMinIn,WindSpeedMaxMPH,WindSpeedAvgMPH,GustSpeedMaxMPH,PrecipitationSumIn
2013-8-2,79,60,47,59,52,46,97,80,49,29.95,29.86,2,0,0,0.00
2013-8-3,69,58,51,57,52,49,95,84,63,29.96,29.89,3,1,0,0.00
2013-8-4,69,57,52,56,52,49,95,85,63,29.98,29.92,3,1,0,0.00
2013-8-5,71,58,49,56,52,46,94,82,59,30.00,29.91,2,0,0,0.00
2013-8-6,69,58,48,57,53,46,95,85,63,30.01,29.95,2,1,0,0.00
2013-8-7,66,59,56,59,56,53,94,88,74,30.08,30.01,2,0,0,0.00
2013-8-8,73,61,51,60,55,48,100,83,58,30.01,29.90,2,0,0,0.00
2013-8-9,72,60,50,59,54,48,95,82,62,29.96,29.89,2,0,0,0.00
2013-8-10,76,63,53,61,56,51,95,80,60,30.01,29.96,2,0,0,0.00
2013-8-11,75,61,52,60,55,50,96,83,58,29.99,29.90,2,0,0,0.00
2013-8-12,75,58,50,60,54,48,96,85,56,29.98,29.91,2,0,0,0.00
2013-8-13,77,55,48,59,50,-100,97,89,54,29.97,29.86,1,0,0,0.00
2013-8-14,74,54,49,61,49,-100,97,89,63,29.94,29.86,1,0,0,0.00
2013-8-15,78,53,54,64,38,-100,97,80,51,29.93,29.86,2,0,0,0.00
2013-8-16,71,57,54,64,51,-100,98,89,64,29.95,29.90,2,0,0,0.00
2013-8-17,78,58,52,62,52,-100,97,87,57,29.95,29.81,0,0,0,0.00
2013-8-18,82,61,55,62,56,53,96,85,50,29.85,29.74,1,0,0,0.00
2013-8-19,81,62,57,62,49,-100,94,75,46,29.87,29.76,3,1,0,0.00
2013-8-20,75,61,57,61,55,-100,96,85,59,29.88,29.80,3,1,0,0.00
2013-8-21,77,62,54,59,55,51,92,81,54,29.92,29.83,2,1,0,0.00
2013-8-22,76,60,50,59,53,48,97,82,54,29.94,29.85,2,0,0,0.00
2013-8-23,74,57,50,59,53,48,96,88,60,29.90,29.77,1,0,0,0.00
2013-8-24,79,56,50,61,51,-100,97,87,54,29.86,29.79,1,0,0,0.00
2013-8-25,78,64,55,65,58,54,97,85,60,29.91,29.85,3,0,0,0.00
2013-8-26,71,61,56,61,57,52,92,86,63,29.98,29.86,0,0,0,0.00
2013-8-27,66,53,50,61,51,48,97,93,77,29.87,29.84,0,0,0,0.00
2013-8-28,79,66,59,64,60,56,92,83,60,29.91,29.83,1,0,0,0.00
2013-8-29,77,61,57,64,59,55,96,91,63,30.00,29.91,0,0,0,0.00
2013-8-30,81,62,57,64,58,56,98,88,53,30.00,29.87,0,0,0,0.00
2013-8-31,73,57,51,61,52,-100,97,87,64,29.93,29.85,0,0,0,0.00
2013-9-1,76,62,56,62,57,53,93,84,62,29.91,29.84,0,0,0,0.00
2013-9-2,77,62,56,65,58,54,97,87,63,29.92,29.84,1,0,0,0.00
2013-9-3,78,61,53,63,56,52,97,86,58,29.95,29.88,2,0,0,0.00
2013-9-4,75,57,52,62,54,51,98,88,53,29.99,29.89,0,0,0,0.00
2013-9-5,73,57,52,60,53,51,97,86,50,29.96,29.90,0,0,0,0.00
2013-9-6,85,60,52,61,53,50,97,81,40,29.95,29.78,0,0,0,0.00
2013-9-7,90,61,56,59,51,-100,87,72,36,29.83,29.76,1,0,0,0.00
2013-9-8,78,56,50,60,52,48,97,87,49,29.84,29.72,1,0,0,0.00
2013-9-9,80,58,49,61,53,48,97,87,52,29.78,29.67,1,0,0,0.00
2013-9-10,64,60,55,60,58,53,96,92,87,29.87,29.70,2,1,0,0.00
2013-9-11,71,63,60,61,59,57,96,87,68,29.98,29.86,2,0,0,0.00
2013-9-12,74,62,55,62,59,53,95,89,65,29.95,29.84,1,0,0,0.00
2013-9-13,71,58,54,58,55,51,96,90,64,29.88,29.72,1,0,0,0.00
2013-9-14,73,54,50,59,50,-100,97,89,61,29.79,29.70,0,0,0,0.00
2013-9-15,77,57,49,60,53,48,96,88,54,29.83,29.73,1,0,0,0.00
2013-9-16,74,58,54,60,55,52,97,89,57,29.86,29.75,0,0,0,0.00
2013-9-17,72,58,52,56,52,50,96,84,51,29.85,29.77,2,0,0,0.00
2013-9-18,61,54,50,52,50,48,94,85,67,29.85,29.80,0,0,0,0.00
2013-9-19,79,55,47,55,47,45,94,78,37,29.83,29.70,0,0,0,0.00
2013-9-20,73,58,46,61,54,44,96,88,64,29.83,29.74,3,0,0,0.00
2013-9-21,70,61,56,63,56,-100,97,88,69,29.86,29.77,2,1,0,0.00
2013-9-22,73,57,49,59,52,48,97,86,53,29.96,29.86,2,0,0,0.00
2013-9-23,76,57,51,61,53,49,97,88,58,29.99,29.89,0,0,0,0.00
2013-9-24,72,58,54,57,52,46,97,81,49,29.95,29.83,3,1,0,0.00
2013-9-25,68,59,56,49,46,43,74,62,46,29.89,29.77,2,1,0,0.00
2013-9-26,75,58,53,46,42,39,69,56,35,29.95,29.80,1,0,0,0.00
2013-9-27,75,56,49,46,41,39,73,58,30,30.05,29.94,1,0,0,0.00
2013-9-28,76,53,47,55,43,-100,88,74,46,30.05,29.96,0,0,0,0.00
2013-9-29,75,60,51,62,56,49,97,87,65,30.08,30.02,2,0,0,0.00
2013-9-30,72,63,58,65,60,55,97,91,72,30.04,29.93,2,0,0,0.00
2013-10-1,65,56,52,53,50,48,88,81,65,29.91,29.88,0,0,0,0.00
2013-10-2,69,53,48,55,48,42,97,83,54,29.98,29.90,1,0,0,0.00
2013-10-3,73,59,49,43,37,30,70,47,24,30.04,29.92,1,0,0,0.00
2013-10-4,83,65,58,38,32,27,43,30,18,30.05,29.93,2,1,0,0.00
2013-10-5,81,61,54,41,34,29,50,36,24,30.16,30.05,0,0,0,0.00
2013-10-6,85,58,49,46,39,35,67,49,18,30.09,29.96,1,0,0,0.00
2013-10-7,75,57,50,52,42,36,79,58,44,29.96,29.83,0,0,0,0.00
2013-10-8,73,54,45,54,45,42,96,76,42,29.87,29.69,2,0,0,0.00
2013-10-9,72,53,45,50,45,43,96,78,38,29.73,29.60,2,0,0,0.00
2013-10-10,65,53,46,52,47,40,93,78,60,29.98,29.72,3,1,0,0.00
2013-10-11,67,50,44,52,47,42,94,88,58,30.06,29.95,1,0,0,0.00
2013-10-12,66,49,40,54,44,-100,97,85,60,29.98,29.86,2,0,0,0.00
2013-10-13,61,51,46,54,47,44,97,87,64,29.99,29.88,2,0,0,0.00
2013-10-15,76,63,52,42,40,38,59,46,28,30.01,29.91,1,0,0,0.00
2013-10-16,82,55,47,45,40,38,71,58,22,30.05,29.95,0,0,4,0.00
2013-10-17,75,53,47,45,40,37,73,61,35,30.04,29.92,0,0,1,0.00
2013-10-18,70,50,42,52,42,37,89,77,51,30.03,29.95,0,0,2,0.00
2013-10-19,72,48,43,54,43,-100,96,84,48,30.05,29.96,0,0,2,0.00
2013-10-20,68,47,40,53,44,38,97,89,58,29.99,29.87,0,0,2,0.00
2013-10-21,64,47,41,52,44,39,97,92,62,29.98,29.88,0,0,3,0.00
2013-10-22,67,47,41,57,44,40,97,92,56,30.00,29.89,0,0,3,0.00
2013-10-23,66,46,41,55,44,40,100,92,62,29.96,29.87,0,0,4,0.00
2013-10-24,65,47,41,52,44,39,97,90,61,30.05,29.95,0,0,3,0.00
2013-10-25,67,50,42,58,47,41,98,90,64,30.14,30.05,0,0,1,0.01
2013-10-26,72,49,43,58,44,-100,97,88,54,30.12,29.97,0,0,2,0.01
2013-10-27,64,50,40,54,46,39,97,85,60,30.00,29.62,4,1,17,0.00
2013-10-28,63,50,45,49,43,-100,93,80,55,29.80,29.62,2,0,10,0.00
2013-10-29,65,53,44,50,47,41,92,80,55,30.02,29.80,2,0,11,0.00
2013-10-30,67,47,41,54,44,40,100,90,52,30.12,30.02,0,0,3,0.00
2013-10-31,70,48,42,54,44,41,97,87,44,30.15,30.03,0,0,2,0.00
2013-11-1,74,52,45,49,45,43,94,78,40,30.12,29.98,1,0,8,0.00
2013-11-2,66,49,44,53,43,-100,93,83,64,29.99,29.87,0,0,2,0.00
2013-11-3,68,52,44,46,41,35,94,68,33,30.01,29.89,0,0,6,0.01
2013-11-4,72,54,39,40,34,33,84,53,25,30.04,29.89,1,0,4,0.01